Time;durP1;ratioP1;P1;durP2;ratioP2;P2;SDS_P1;SDS_P2;PMS_P1;PMS_P2;Temp;Humidity;BMP_temperature;BMP_pressure;BME280_temperature;BME280_humidity;BME280_pressure;Samples;Min_cycle;Max_cycle;Signal;HPM_P1;HPM_P2
2024/03/29 01:44:56;;;;;;;1.40;1.00;;;10.30;98.20;;;;;;4876625;29;20473;-80
2024/03/29 01:47:25;;;;;;;1.50;1.20;;;10.30;98.20;;;;;;4883321;29;20286;-79
2024/03/29 01:49:52;;;;;;;1.47;1.10;;;10.30;98.20;;;;;;4879476;29;20526;-81
2024/03/29 01:52:22;;;;;;;1.43;1.10;;;10.30;98.20;;;;;;4876979;29;20485;-78
2024/03/29 01:54:50;;;;;;;1.50;1.10;;;10.30;98.20;;;;;;4872269;29;20468;-84
2024/03/29 01:57:20;;;;;;;1.50;1.10;;;10.30;98.20;;;;;;4883303;29;20545;-84
2024/03/29 01:59:48;;;;;;;1.50;1.10;;;10.30;98.20;;;;;;4876833;29;20473;-81
2024/03/29 02:02:15;;;;;;;1.47;1.10;;;10.30;98.20;;;;;;4890835;29;20484;-82
2024/03/29 02:04:43;;;;;;;1.50;1.10;;;10.30;98.20;;;;;;4887172;29;20474;-83
2024/03/29 02:07:15;;;;;;;1.50;1.10;;;10.20;98.20;;;;;;4878721;29;20515;-83
2024/03/29 02:09:42;;;;;;;1.47;1.10;;;10.30;98.20;;;;;;4879362;29;20736;-83
2024/03/29 02:12:09;;;;;;;1.50;1.10;;;10.30;98.20;;;;;;4881945;29;20490;-81
2024/03/29 02:14:36;;;;;;;1.50;1.10;;;10.30;98.20;;;;;;4882809;29;20458;-80
2024/03/29 02:17:02;;;;;;;1.50;1.10;;;10.30;98.20;;;;;;4881144;29;20980;-82
2024/03/29 02:19:29;;;;;;;1.50;1.10;;;10.30;98.20;;;;;;4887667;29;20466;-81
2024/03/29 02:22:00;;;;;;;1.43;1.00;;;10.30;98.20;;;;;;4878366;29;20516;-81
2024/03/29 02:24:30;;;;;;;1.50;1.20;;;10.30;98.20;;;;;;4888099;29;20473;-81
2024/03/29 02:26:57;;;;;;;1.43;1.10;;;10.30;98.20;;;;;;4881879;29;20485;-81
2024/03/29 02:29:25;;;;;;;1.50;1.10;;;10.30;98.20;;;;;;4884583;29;20714;-79
2024/03/29 02:31:52;;;;;;;1.47;1.03;;;10.30;98.20;;;;;;4876356;29;20576;-81
2024/03/29 02:34:19;;;;;;;1.47;1.17;;;10.30;98.20;;;;;;4886146;29;20470;-80
2024/03/29 02:36:45;;;;;;;1.50;1.00;;;10.30;98.20;;;;;;4878740;29;20484;-80
2024/03/29 02:39:12;;;;;;;1.50;1.10;;;10.30;98.20;;;;;;4886582;29;20856;-80
2024/03/29 02:41:40;;;;;;;1.50;1.10;;;10.40;98.20;;;;;;4878230;29;20506;-80
2024/03/29 02:44:08;;;;;;;1.50;1.10;;;10.40;98.20;;;;;;4888368;29;20467;-79
2024/03/29 02:46:34;;;;;;;1.50;1.10;;;10.40;98.20;;;;;;4875717;29;20485;-80
2024/03/29 02:49:00;;;;;;;1.47;1.00;;;10.40;98.20;;;;;;4887721;29;20529;-80
2024/03/29 02:51:27;;;;;;;1.50;1.03;;;10.40;98.20;;;;;;4873404;29;20496;-79
2024/03/29 02:53:53;;;;;;;1.50;1.13;;;10.40;98.20;;;;;;4890164;29;20248;-80
2024/03/29 02:56:23;;;;;;;1.40;1.00;;;10.40;98.20;;;;;;4872961;29;20709;-80
2024/03/29 02:58:50;;;;;;;1.47;1.07;;;10.30;98.20;;;;;;4890473;29;20241;-80
2024/03/29 03:01:17;;;;;;;1.50;1.10;;;10.30;98.20;;;;;;4873190;29;20504;-81
2024/03/29 03:03:43;;;;;;;1.50;1.20;;;10.30;98.20;;;;;;4890713;29;20465;-80
2024/03/29 03:06:09;;;;;;;1.47;1.10;;;10.30;98.20;;;;;;4872733;29;20576;-81
2024/03/29 03:11:21;;;;;;;1.43;1.00;;;10.30;98.20;;;;;;4871552;29;20537;-81
2024/03/29 03:13:48;;;;;;;1.50;1.10;;;10.30;98.20;;;;;;4887725;29;20534;-81
2024/03/29 03:16:15;;;;;;;1.50;1.10;;;10.30;98.20;;;;;;4872993;29;21059;-80
2024/03/29 03:18:42;;;;;;;1.50;1.10;;;10.20;98.20;;;;;;4891107;29;20477;-80
2024/03/29 03:21:08;;;;;;;1.50;1.00;;;10.20;98.20;;;;;;4874764;29;20513;-80
2024/03/29 03:23:35;;;;;;;1.47;1.10;;;10.20;98.20;;;;;;4893241;29;20467;-79
2024/03/29 03:26:03;;;;;;;1.50;1.00;;;10.20;98.20;;;;;;4871178;29;20242;-81
2024/03/29 03:28:30;;;;;;;1.50;1.10;;;10.20;98.20;;;;;;4890162;29;20503;-80
2024/03/29 03:30:56;;;;;;;1.50;1.10;;;10.20;98.20;;;;;;4866588;29;20557;-80
2024/03/29 03:33:25;;;;;;;1.50;1.10;;;10.20;98.20;;;;;;4891515;29;20484;-79
2024/03/29 03:35:50;;;;;;;1.50;1.20;;;10.20;98.20;;;;;;4868342;29;20554;-80
2024/03/29 03:38:18;;;;;;;1.50;1.10;;;10.20;98.20;;;;;;4892759;29;20766;-78
2024/03/29 03:40:43;;;;;;;1.47;1.10;;;10.20;98.20;;;;;;4878847;29;20421;-81
2024/03/29 03:43:11;;;;;;;1.50;1.10;;;10.20;98.20;;;;;;4883681;29;20866;-80
2024/03/29 03:45:37;;;;;;;1.50;1.10;;;10.20;98.20;;;;;;4875397;29;20228;-80
2024/03/29 03:48:05;;;;;;;1.50;1.10;;;10.20;98.20;;;;;;4883272;29;20576;-81
2024/03/29 03:50:32;;;;;;;1.50;1.10;;;10.20;98.20;;;;;;4874602;29;20495;-80
2024/03/29 03:53:00;;;;;;;1.50;1.10;;;10.20;98.20;;;;;;4878878;29;20492;-81
2024/03/29 03:55:26;;;;;;;1.50;1.10;;;10.20;98.20;;;;;;4870811;29;20558;-80
2024/03/29 03:57:54;;;;;;;1.50;1.10;;;10.20;98.20;;;;;;4882161;29;20473;-80
2024/03/29 04:00:21;;;;;;;1.50;1.10;;;10.20;98.20;;;;;;4873937;29;20551;-80
2024/03/29 04:02:49;;;;;;;1.50;1.10;;;10.20;98.20;;;;;;4881504;29;20542;-80
2024/03/29 04:05:15;;;;;;;1.50;1.10;;;10.20;98.20;;;;;;4867239;29;21018;-80
2024/03/29 04:07:44;;;;;;;1.50;1.10;;;10.20;98.20;;;;;;4880706;29;20490;-80
2024/03/29 04:10:10;;;;;;;1.50;1.10;;;10.10;98.20;;;;;;4876643;29;20588;-80
2024/03/29 04:12:37;;;;;;;1.50;1.10;;;10.10;98.20;;;;;;4880741;29;20481;-80
2024/03/29 04:15:04;;;;;;;1.50;1.20;;;10.10;98.20;;;;;;4873885;29;20526;-80
2024/03/29 04:17:31;;;;;;;1.50;1.10;;;10.10;98.20;;;;;;4880284;29;20485;-80
2024/03/29 04:20:06;;;;;;;1.47;1.10;;;10.10;98.20;;;;;;4878808;29;20546;-80
2024/03/29 04:22:33;;;;;;;1.50;1.17;;;10.10;98.20;;;;;;4878945;29;20825;-80
2024/03/29 04:25:14;;;;;;;1.50;1.10;;;10.10;98.20;;;;;;4877626;29;20470;-80
2024/03/29 04:27:42;;;;;;;1.50;1.10;;;10.10;98.20;;;;;;4881806;29;20526;-80
2024/03/29 04:30:15;;;;;;;1.50;1.20;;;10.10;98.20;;;;;;4877579;29;20514;-81
2024/03/29 04:32:40;;;;;;;1.47;1.10;;;10.00;98.20;;;;;;4883029;29;20565;-81
2024/03/29 04:35:08;;;;;;;1.63;1.40;;;10.00;98.20;;;;;;4876103;29;20500;-82
2024/03/29 04:37:35;;;;;;;1.50;1.10;;;10.00;98.20;;;;;;4882965;29;20258;-83
2024/03/29 04:40:04;;;;;;;1.43;1.03;;;9.90;98.20;;;;;;4879409;29;20467;-83
2024/03/29 04:42:31;;;;;;;1.47;1.10;;;9.90;98.20;;;;;;4886570;29;20481;-83
2024/03/29 04:44:57;;;;;;;1.50;1.10;;;9.80;98.20;;;;;;4882506;29;20762;-84
2024/03/29 04:47:24;;;;;;;1.47;1.07;;;9.80;98.20;;;;;;4885716;29;20854;-83
2024/03/29 04:49:59;;;;;;;1.50;1.10;;;9.80;98.20;;;;;;4884597;29;20474;-82
2024/03/29 04:52:31;;;;;;;1.50;1.20;;;9.70;98.20;;;;;;4879121;29;20913;-82
2024/03/29 04:54:58;;;;;;;1.43;1.10;;;9.70;98.20;;;;;;4878444;29;20982;-82
2024/03/29 04:57:27;;;;;;;1.43;1.10;;;9.70;98.20;;;;;;4881570;29;20512;-81
2024/03/29 04:59:54;;;;;;;1.43;1.00;;;9.70;98.20;;;;;;4885242;29;20477;-85
2024/03/29 05:02:21;;;;;;;1.50;1.10;;;9.60;98.20;;;;;;4882523;29;20604;-79
2024/03/29 05:04:48;;;;;;;1.50;1.03;;;9.50;98.20;;;;;;4883054;29;20569;-83
2024/03/29 05:07:15;;;;;;;1.50;1.10;;;9.50;98.20;;;;;;4881217;29;20523;-81
2024/03/29 05:09:42;;;;;;;1.43;1.10;;;9.40;98.20;;;;;;4882609;29;21079;-80
2024/03/29 05:12:21;;;;;;;1.50;1.10;;;9.40;98.20;;;;;;4879375;29;21060;-80
2024/03/29 05:14:53;;;;;;;1.50;1.10;;;9.30;98.20;;;;;;4881528;29;20489;-81
2024/03/29 05:17:25;;;;;;;1.47;1.17;;;9.20;98.20;;;;;;4876035;29;20859;-79
2024/03/29 05:19:52;;;;;;;1.50;1.10;;;9.20;98.20;;;;;;4879459;29;20824;-83
2024/03/29 05:22:56;;;;;;;1.50;1.10;;;9.10;98.20;;;;;;4881794;29;20523;-81
2024/03/29 05:25:23;;;;;;;1.50;1.20;;;9.10;98.20;;;;;;4877512;29;20494;-82
2024/03/29 05:27:50;;;;;;;1.50;1.10;;;9.10;98.20;;;;;;4885399;29;20485;-78
2024/03/29 05:30:19;;;;;;;1.50;1.10;;;9.10;98.20;;;;;;4879970;29;20726;-82
2024/03/29 05:32:46;;;;;;;1.47;1.10;;;9.10;98.20;;;;;;4883308;29;20481;-84
2024/03/29 05:35:14;;;;;;;1.50;1.10;;;9.10;98.20;;;;;;4881202;29;20558;-79
2024/03/29 05:37:41;;;;;;;1.50;1.10;;;9.10;98.20;;;;;;4881518;29;21064;-81
2024/03/29 05:40:09;;;;;;;1.50;1.20;;;9.10;98.20;;;;;;4877510;29;20576;-81
2024/03/29 05:42:37;;;;;;;1.47;1.10;;;9.10;98.20;;;;;;4879178;29;20499;-80
2024/03/29 05:45:08;;;;;;;1.50;1.10;;;9.10;98.20;;;;;;4872947;29;20502;-80
2024/03/29 05:47:36;;;;;;;1.50;1.27;;;9.10;98.20;;;;;;4876862;29;20571;-80
2024/03/29 05:50:03;;;;;;;1.50;1.10;;;9.10;98.20;;;;;;4874850;29;20474;-80
2024/03/29 05:52:33;;;;;;;1.50;1.20;;;9.10;98.20;;;;;;4878560;29;20493;-81
2024/03/29 05:55:06;;;;;;;1.50;1.10;;;9.00;98.20;;;;;;4876514;29;20497;-79
2024/03/29 05:57:34;;;;;;;1.43;1.10;;;9.00;98.20;;;;;;4877261;29;20936;-78
2024/03/29 06:00:01;;;;;;;1.47;1.10;;;8.90;98.20;;;;;;4878472;29;20474;-78
2024/03/29 06:02:28;;;;;;;14.80;12.13;;;8.90;98.20;;;;;;4876243;29;20485;-79
2024/03/29 06:04:56;;;;;;;1.50;1.13;;;8.90;98.20;;;;;;4878001;29;20455;-78
2024/03/29 06:07:23;;;;;;;1.50;1.20;;;8.90;98.20;;;;;;4874961;29;20481;-78
2024/03/29 06:09:56;;;;;;;1.50;1.20;;;8.90;98.20;;;;;;4878882;29;21384;-78
2024/03/29 06:12:23;;;;;;;1.50;1.10;;;8.90;98.20;;;;;;4877527;29;21099;-80
2024/03/29 06:17:36;;;;;;;1.47;1.10;;;9.00;98.20;;;;;;4878190;29;21129;-79
2024/03/29 06:20:06;;;;;;;1.47;1.10;;;9.10;98.20;;;;;;4877526;29;20494;-79
2024/03/29 06:22:33;;;;;;;1.50;1.10;;;9.10;98.20;;;;;;4882905;29;20569;-81
2024/03/29 06:25:04;;;;;;;1.50;1.10;;;9.10;98.20;;;;;;4876027;29;20477;-79
2024/03/29 06:27:31;;;;;;;1.50;1.10;;;9.20;98.20;;;;;;4878330;29;20482;-81
2024/03/29 06:30:04;;;;;;;1.50;1.30;;;9.20;98.20;;;;;;4877142;29;20521;-79
2024/03/29 06:32:51;;;;;;;1.50;1.10;;;9.30;98.20;;;;;;4877457;29;20581;-79
2024/03/29 06:36:15;;;;;;;1.50;1.20;;;9.30;98.20;;;;;;4880389;29;20482;-78
2024/03/29 06:39:21;;;;;;;1.43;1.10;;;9.40;98.20;;;;;;4865657;29;20569;-80
2024/03/29 06:42:33;;;;;;;;;;;;;;;;;;;;;
2024/03/29 06:53:22;;;;;;;1.50;1.30;;;9.70;98.20;;;;;;4886527;29;20514;-81
2024/03/29 07:03:32;;;;;;;1.47;1.10;;;9.90;98.20;;;;;;4781050;29;20585;-80
2024/03/29 07:08:39;;;;;;;1.50;1.10;;;10.00;98.20;;;;;;3012295;27;20487;-80
2024/03/29 07:11:14;;;;;;;1.50;1.00;;;10.10;98.20;;;;;;4853455;29;20468;-82
2024/03/29 07:13:49;;;;;;;1.50;1.20;;;10.10;98.20;;;;;;4872510;29;20477;-79
2024/03/29 07:16:20;;;;;;;1.50;1.10;;;10.20;98.20;;;;;;4850834;29;20478;-80
2024/03/29 07:18:51;;;;;;;1.50;1.10;;;10.20;98.20;;;;;;4870262;29;20500;-79
2024/03/29 07:25:07;;;;;;;1.43;1.00;;;10.40;98.20;;;;;;4819132;29;21054;-81
2024/03/29 07:27:35;;;;;;;1.50;1.10;;;10.40;98.20;;;;;;4809080;29;20572;-79
2024/03/29 07:30:07;;;;;;;1.43;1.00;;;10.50;98.20;;;;;;4850476;29;20551;-80
2024/03/29 07:32:35;;;;;;;1.50;1.10;;;10.50;98.20;;;;;;4862340;29;20485;-80
2024/03/29 07:35:23;;;;;;;;;;;;;;;;;;;;;
2024/03/29 07:37:53;;;;;;;1.47;1.10;;;10.60;98.20;;;;;;4859698;29;20547;-78
2024/03/29 07:40:26;;;;;;;1.50;1.10;;;10.70;98.20;;;;;;4857958;29;20471;-80
2024/03/29 07:42:53;;;;;;;1.50;1.00;;;10.70;98.20;;;;;;4860886;29;20491;-79
2024/03/29 07:45:44;;;;;;;1.50;1.10;;;10.80;98.20;;;;;;4857553;29;20511;-80
2024/03/29 07:48:14;;;;;;;1.50;1.00;;;10.80;98.20;;;;;;4861565;29;20483;-81
2024/03/29 07:51:10;;;;;;;1.50;1.00;;;10.90;98.20;;;;;;4861597;29;21010;-82
2024/03/29 07:57:17;;;;;;;1.50;1.10;;;11.00;98.20;;;;;;4883571;23;20629;-83
2024/03/29 08:00:06;;;;;;;1.53;1.30;;;11.00;98.20;;;;;;4887372;29;20766;-80
2024/03/29 08:03:17;;;;;;;1.50;1.10;;;11.10;98.20;;;;;;4874863;29;20485;-82
2024/03/29 08:05:59;;;;;;;1.50;1.10;;;11.10;98.20;;;;;;4888859;29;20498;-83
2024/03/29 08:08:27;;;;;;;1.47;1.10;;;11.20;98.20;;;;;;4865262;29;20514;-81
2024/03/29 08:10:55;;;;;;;1.43;1.00;;;11.20;98.20;;;;;;4869835;29;20958;-82
2024/03/29 08:13:29;;;;;;;1.50;1.00;;;11.30;98.20;;;;;;4895266;29;20481;-82
2024/03/29 08:16:13;;;;;;;1.50;1.00;;;11.40;98.20;;;;;;4876665;29;20518;-81
2024/03/29 09:51:49;;;;;;;1.47;1.00;;;15.20;98.20;;;;;;5456332;23;20497;-80
2024/03/29 09:54:17;;;;;;;1.47;1.00;;;15.30;98.20;;;;;;4873477;29;20496;-82
2024/03/29 09:57:02;;;;;;;1.50;0.90;;;15.20;98.20;;;;;;4872424;29;20548;-81
2024/03/29 09:59:39;;;;;;;1.50;0.90;;;15.30;98.20;;;;;;4886387;29;21027;-81
2024/03/29 10:02:19;;;;;;;1.43;0.90;;;15.30;98.20;;;;;;4867200;29;20486;-81
2024/03/29 10:04:50;;;;;;;1.47;1.00;;;15.50;98.20;;;;;;4882464;29;20470;-81
2024/03/29 10:07:20;;;;;;;1.50;1.00;;;15.60;98.20;;;;;;4878777;29;20497;-81
2024/03/29 10:09:48;;;;;;;1.47;0.87;;;15.80;98.20;;;;;;4878518;29;20550;-83
2024/03/29 10:12:25;;;;;;;1.47;0.97;;;15.90;98.20;;;;;;4863470;29;20485;-82
2024/03/29 10:17:29;;;;;;;1.50;0.90;;;16.10;98.20;;;;;;4881667;23;20486;-80
2024/03/29 10:20:03;;;;;;;1.50;0.90;;;16.20;98.20;;;;;;4856765;29;20785;-81
2024/03/29 10:22:47;;;;;;;1.50;1.00;;;16.30;98.20;;;;;;4862445;29;20483;-82
2024/03/29 10:25:46;;;;;;;1.50;0.90;;;16.30;98.20;;;;;;4856793;29;20493;-81
2024/03/29 10:28:19;;;;;;;1.50;0.90;;;16.30;98.20;;;;;;4847968;29;20779;-83
2024/03/29 10:38:30;;;;;;;1.50;0.97;;;16.30;98.20;;;;;;4773391;29;20567;-80
2024/03/29 10:41:18;;;;;;;1.43;0.97;;;16.20;98.20;;;;;;4803579;29;20498;-81
2024/03/29 10:44:30;;;;;;;;;;;;;;;;;;;;;
2024/03/29 10:47:23;;;;;;;1.43;0.90;;;16.00;98.20;;;;;;5096743;23;20493;-82
2024/03/29 10:50:21;;;;;;;1.50;1.10;;;16.10;98.20;;;;;;4879276;29;20870;-81
2024/03/29 10:52:50;;;;;;;1.43;1.00;;;16.30;98.20;;;;;;4879491;29;21100;-82
2024/03/29 10:55:18;;;;;;;1.50;0.90;;;16.50;98.20;;;;;;4874628;29;20490;-81
2024/03/29 10:57:54;;;;;;;1.43;0.90;;;16.80;98.20;;;;;;4878984;29;20781;-81
2024/03/29 11:00:40;;;;;;;1.47;0.90;;;16.90;98.20;;;;;;4876023;29;20466;-82
2024/03/29 11:03:15;;;;;;;1.50;0.90;;;17.20;98.20;;;;;;4879282;29;20542;-81
2024/03/29 11:05:54;;;;;;;1.47;0.90;;;17.40;98.20;;;;;;4874652;29;20959;-82
2024/03/29 11:08:40;;;;;;;1.47;0.90;;;17.40;96.70;;;;;;4865249;29;20526;-81
2024/03/29 11:11:41;;;;;;;1.47;0.90;;;17.40;96.40;;;;;;4869191;29;20577;-82
2024/03/29 11:16:58;;;;;;;1.47;0.90;;;17.60;95.90;;;;;;4864540;29;20960;-81
2024/03/29 11:19:27;;;;;;;1.50;0.90;;;17.70;94.10;;;;;;4876316;29;20467;-81
2024/03/29 11:21:55;;;;;;;1.40;0.90;;;17.80;94.30;;;;;;4873515;29;20589;-83
2024/03/29 11:24:24;;;;;;;1.50;0.90;;;17.80;94.00;;;;;;4887041;29;20508;-81
2024/03/29 11:26:59;;;;;;;1.50;0.90;;;17.80;94.20;;;;;;4872611;29;20998;-82
2024/03/29 11:29:29;;;;;;;1.47;0.90;;;17.80;93.70;;;;;;4875871;29;20499;-81
2024/03/29 11:32:00;;;;;;;1.50;0.90;;;17.70;93.60;;;;;;4873033;29;20505;-79
2024/03/29 11:38:04;;;;;;;1.50;0.90;;;17.60;94.30;;;;;;4975817;23;20679;-80
2024/03/29 11:41:08;;;;;;;1.50;0.90;;;17.50;93.80;;;;;;4879406;29;20898;-82
2024/03/29 11:43:43;;;;;;;1.47;0.90;;;17.40;94.40;;;;;;4861236;29;20478;-81
2024/03/29 11:49:00;;;;;;;1.47;0.90;;;17.30;94.40;;;;;;4878466;29;20502;-81
2024/03/29 11:51:30;;;;;;;1.50;1.00;;;17.30;94.20;;;;;;4866002;29;21011;-80
2024/03/29 11:54:07;;;;;;;1.47;0.90;;;17.30;94.20;;;;;;4881377;29;20475;-80
2024/03/29 12:00:29;;;;;;;1.47;0.90;;;17.40;94.60;;;;;;4878762;29;20991;-81
2024/03/29 12:03:11;;;;;;;1.47;0.90;;;17.40;94.30;;;;;;4846500;29;20859;-81
2024/03/29 12:08:15;;;;;;;1.43;0.90;;;17.60;94.80;;;;;;5492848;23;20645;-81
2024/03/29 12:17:53;;;;;;;1.50;0.90;;;17.50;95.20;;;;;;5205922;23;21052;-82
2024/03/29 12:20:21;;;;;;;1.43;0.90;;;17.40;93.30;;;;;;4874904;29;20674;-81
2024/03/29 12:23:18;;;;;;;1.47;0.90;;;17.30;93.20;;;;;;4880305;29;20564;-80
2024/03/29 12:25:46;;;;;;;1.47;0.90;;;17.20;93.20;;;;;;4876511;29;21130;-80
2024/03/29 12:28:15;;;;;;;1.50;0.90;;;17.10;93.30;;;;;;4865613;29;21144;-81
2024/03/29 12:30:57;;;;;;;;;;;;;;;;;;;;;
2024/03/29 12:33:28;;;;;;;1.50;0.90;;;17.00;94.80;;;;;;4879749;29;20474;-80
2024/03/29 12:39:05;;;;;;;1.47;0.90;;;16.90;95.40;;;;;;4836515;29;20471;-82
2024/03/29 12:42:28;;;;;;;1.47;0.90;;;16.90;96.70;;;;;;4824748;29;20526;-80
2024/03/29 12:50:28;;;;;;;1.50;0.90;;;16.70;98.20;;;;;;4849054;29;20523;-81
2024/03/29 12:53:01;;;;;;;1.50;1.00;;;16.70;98.20;;;;;;4850789;29;20486;-80
2024/03/29 12:55:46;;;;;;;;;;;;;;;;;;;;;
2024/03/29 12:58:28;;;;;;;1.47;0.90;;;16.60;98.20;;;;;;4831986;29;20471;-81
2024/03/29 13:01:10;;;;;;;1.50;1.00;;;16.60;98.20;;;;;;4837018;29;20464;-81
2024/03/29 13:03:47;;;;;;;1.50;0.90;;;16.60;98.20;;;;;;4849335;29;20630;-81
2024/03/29 13:06:22;;;;;;;1.50;1.00;;;16.70;98.20;;;;;;4838751;29;20497;-81
2024/03/29 13:09:25;;;;;;;1.43;0.90;;;16.80;98.20;;;;;;4863012;29;20550;-81
2024/03/29 13:11:53;;;;;;;1.50;0.90;;;16.90;98.20;;;;;;4838338;29;20487;-81
2024/03/29 13:14:43;;;;;;;1.47;0.90;;;17.00;97.20;;;;;;4849092;29;20480;-81
2024/03/29 13:17:37;;;;;;;;;;;;;;;;;;;;;
2024/03/29 13:20:18;;;;;;;1.50;0.90;;;17.10;94.30;;;;;;4850919;29;20551;-81
2024/03/29 13:22:55;;;;;;;1.50;0.90;;;17.10;93.40;;;;;;4847213;29;20675;-80
2024/03/29 13:25:23;;;;;;;1.47;0.90;;;17.00;92.90;;;;;;4845850;29;20523;-80
2024/03/29 13:27:54;;;;;;;1.50;0.90;;;17.10;93.50;;;;;;4848681;29;20567;-80
2024/03/29 14:36:06;;;;;;;1.40;0.90;;;17.70;89.40;;;;;;4819322;29;20495;-79
2024/03/29 15:03:43;;;;;;;1.50;0.90;;;16.80;95.60;;;;;;4845316;29;20481;-81
2024/03/29 15:15:16;;;;;;;1.50;1.00;;;16.90;95.20;;;;;;4810591;29;20482;-77
2024/03/29 15:30:54;;;;;;;1.50;0.90;;;17.00;94.90;;;;;;4817782;29;20630;-82
2024/03/29 15:33:21;;;;;;;1.43;0.90;;;16.80;95.10;;;;;;4823861;29;20668;-80
2024/03/29 15:35:58;;;;;;;1.47;0.90;;;16.60;95.60;;;;;;4842606;29;21064;-80
2024/03/29 15:39:04;;;;;;;1.47;0.90;;;16.50;96.00;;;;;;4865385;29;20489;-80
2024/03/29 15:41:32;;;;;;;1.50;1.00;;;16.40;96.50;;;;;;4854575;29;21547;-79
2024/03/29 15:44:00;;;;;;;1.47;0.90;;;16.30;96.80;;;;;;4873142;29;20538;-78
2024/03/29 15:46:30;;;;;;;1.47;0.93;;;16.30;96.60;;;;;;4854643;29;21076;-79
2024/03/29 15:49:01;;;;;;;1.43;1.00;;;16.20;96.40;;;;;;4865340;29;20571;-78
2024/03/29 15:51:29;;;;;;;1.47;0.93;;;16.10;96.60;;;;;;4850215;29;20490;-79
2024/03/29 15:54:00;;;;;;;1.43;0.90;;;16.10;97.00;;;;;;4876732;29;20561;-79
2024/03/29 15:56:28;;;;;;;1.47;0.90;;;16.10;97.60;;;;;;4855261;29;20518;-79
2024/03/29 15:58:56;;;;;;;1.50;0.90;;;16.10;97.90;;;;;;4862899;29;20499;-79
2024/03/29 16:01:30;;;;;;;1.47;0.90;;;16.10;97.80;;;;;;4851917;29;20533;-79
2024/03/29 16:03:57;;;;;;;1.43;0.90;;;16.10;98.20;;;;;;4866482;29;20562;-80
2024/03/29 16:06:24;;;;;;;1.40;0.90;;;16.00;98.20;;;;;;4848884;29;20486;-79
2024/03/29 16:08:52;;;;;;;1.50;1.00;;;16.00;98.20;;;;;;4865345;29;20656;-79
2024/03/29 16:11:20;;;;;;;1.47;0.90;;;16.00;98.20;;;;;;4855568;29;20488;-79
2024/03/29 16:13:48;;;;;;;1.40;0.90;;;15.90;98.20;;;;;;4870579;29;20476;-79
2024/03/29 16:16:18;;;;;;;1.43;0.93;;;15.80;98.20;;;;;;4852839;29;20496;-80
2024/03/29 16:18:48;;;;;;;1.50;1.00;;;15.70;98.20;;;;;;4865384;29;20483;-80
2024/03/29 16:21:35;;;;;;;1.50;1.00;;;15.60;98.20;;;;;;4849840;29;20578;-80
2024/03/29 16:24:02;;;;;;;1.40;0.90;;;15.50;98.20;;;;;;4872998;29;20945;-79
2024/03/29 16:26:30;;;;;;;1.47;0.90;;;15.50;98.20;;;;;;4853383;29;20485;-79
2024/03/29 16:29:02;;;;;;;1.47;0.90;;;15.50;98.20;;;;;;4872175;29;20479;-80
2024/03/29 16:31:30;;;;;;;1.50;0.90;;;15.40;98.20;;;;;;4854682;29;20515;-81
2024/03/29 16:33:58;;;;;;;1.47;0.90;;;15.40;98.20;;;;;;4869785;29;20567;-81
2024/03/29 16:36:49;;;;;;;1.50;1.00;;;15.40;98.20;;;;;;4860447;29;20997;-81
2024/03/29 16:39:28;;;;;;;1.47;0.90;;;15.30;98.20;;;;;;4854620;29;21066;-80
2024/03/29 16:41:57;;;;;;;1.50;0.90;;;15.30;98.20;;;;;;4854564;29;20510;-79
2024/03/29 16:44:24;;;;;;;1.50;1.00;;;15.20;98.20;;;;;;4862365;29;20470;-78
2024/03/29 16:46:54;;;;;;;1.50;0.90;;;15.10;98.20;;;;;;4856736;29;20557;-79
2024/03/29 16:49:24;;;;;;;1.43;1.00;;;15.00;98.20;;;;;;4873548;29;20466;-79
2024/03/29 16:51:52;;;;;;;1.50;1.00;;;15.00;98.20;;;;;;4854755;29;20486;-79
2024/03/29 16:54:24;;;;;;;1.50;1.00;;;14.90;98.20;;;;;;4871798;29;20474;-79
2024/03/29 16:56:54;;;;;;;1.50;1.00;;;14.90;98.20;;;;;;4871094;29;20533;-80
2024/03/29 16:59:25;;;;;;;1.43;1.00;;;14.80;98.20;;;;;;4865578;29;20497;-78
2024/03/29 17:02:11;;;;;;;1.43;0.90;;;14.80;98.20;;;;;;4860059;29;20740;-79
2024/03/29 17:04:52;;;;;;;1.40;0.90;;;14.70;98.20;;;;;;4868084;29;20488;-79
2024/03/29 17:07:25;;;;;;;1.50;1.00;;;14.70;98.20;;;;;;4864614;29;20516;-78
2024/03/29 17:09:58;;;;;;;1.50;1.00;;;14.60;98.20;;;;;;4857097;29;21194;-79
2024/03/29 17:12:34;;;;;;;1.50;1.00;;;14.60;98.20;;;;;;4855203;29;20526;-78
2024/03/29 17:15:04;;;;;;;1.50;1.00;;;14.50;98.20;;;;;;4857352;29;20481;-80
2024/03/29 17:17:31;;;;;;;1.47;1.00;;;14.50;98.20;;;;;;4858768;29;20493;-79
2024/03/29 17:20:16;;;;;;;1.47;0.97;;;14.40;98.20;;;;;;4862253;29;20482;-79
2024/03/29 17:22:49;;;;;;;1.50;0.90;;;14.40;98.20;;;;;;4863965;29;20525;-79
2024/03/29 17:25:15;;;;;;;1.50;1.00;;;14.40;98.20;;;;;;4857973;29;20558;-77
2024/03/29 17:27:42;;;;;;;3.67;1.57;;;14.30;98.20;;;;;;4859174;29;20486;-78
2024/03/29 17:30:09;;;;;;;1.50;1.00;;;14.30;98.20;;;;;;4866867;29;20489;-79
2024/03/29 17:32:37;;;;;;;1.50;1.00;;;14.30;98.20;;;;;;4858879;29;20486;-80
2024/03/29 17:35:06;;;;;;;1.50;0.90;;;14.30;98.20;;;;;;4864787;29;20479;-78
2024/03/29 17:37:33;;;;;;;1.50;0.90;;;14.20;98.20;;;;;;4861342;29;20896;-79
2024/03/29 17:40:00;;;;;;;1.50;1.00;;;14.20;98.20;;;;;;4858006;29;20841;-77
2024/03/29 17:42:27;;;;;;;1.50;1.00;;;14.20;98.20;;;;;;4854043;29;20486;-79
2024/03/29 17:44:53;;;;;;;1.50;1.00;;;14.10;98.20;;;;;;4860503;29;20585;-80
2024/03/29 17:47:20;;;;;;;1.50;1.00;;;14.10;98.20;;;;;;4860865;29;20585;-78
2024/03/29 17:49:46;;;;;;;1.50;1.00;;;14.10;98.20;;;;;;4860829;29;20495;-77
2024/03/29 17:52:15;;;;;;;1.47;1.00;;;14.10;98.20;;;;;;4855739;29;20509;-79
2024/03/29 17:54:43;;;;;;;1.50;1.00;;;14.00;98.20;;;;;;4860154;29;21013;-79
2024/03/29 17:57:10;;;;;;;1.50;1.00;;;14.00;98.20;;;;;;4860961;29;20504;-78
2024/03/29 17:59:36;;;;;;;1.50;1.00;;;14.00;98.20;;;;;;4859356;29;20467;-79
2024/03/29 18:02:04;;;;;;;1.47;1.00;;;14.00;98.20;;;;;;4856346;29;20490;-79
2024/03/29 18:04:30;;;;;;;1.50;1.03;;;13.90;98.20;;;;;;4869799;29;20809;-80
2024/03/29 18:06:59;;;;;;;1.43;1.00;;;13.90;98.20;;;;;;4859866;29;20811;-80
2024/03/29 18:09:26;;;;;;;1.50;1.00;;;13.80;98.20;;;;;;4863785;29;20317;-77
2024/03/29 18:11:53;;;;;;;1.50;1.00;;;13.80;98.20;;;;;;4856034;29;20554;-79
2024/03/29 18:14:19;;;;;;;1.50;1.00;;;13.80;98.20;;;;;;4863825;29;20563;-78
2024/03/29 18:16:47;;;;;;;1.50;1.00;;;13.70;98.20;;;;;;4852966;29;20565;-80
2024/03/29 18:19:13;;;;;;;1.50;1.00;;;13.70;98.20;;;;;;4866536;29;20214;-80
2024/03/29 18:21:42;;;;;;;1.47;1.00;;;13.70;98.20;;;;;;4859506;29;21119;-81
2024/03/29 18:24:08;;;;;;;1.50;1.00;;;13.70;98.20;;;;;;4873805;29;20538;-79
2024/03/29 18:26:37;;;;;;;1.47;1.00;;;13.60;98.20;;;;;;4852871;29;20936;-80
2024/03/29 18:29:02;;;;;;;1.50;1.00;;;13.60;98.20;;;;;;4864733;29;20302;-82
2024/03/29 18:31:30;;;;;;;1.47;1.00;;;13.50;98.20;;;;;;4857382;29;20570;-81
2024/03/29 18:33:57;;;;;;;1.40;0.90;;;13.50;98.20;;;;;;4863780;29;20226;-81
2024/03/29 18:36:28;;;;;;;1.50;1.10;;;13.50;98.20;;;;;;4854695;29;20489;-80
2024/03/29 18:38:58;;;;;;;1.43;1.00;;;13.50;98.20;;;;;;4867910;29;20480;-79
2024/03/29 18:41:28;;;;;;;1.47;0.93;;;13.40;98.20;;;;;;4852813;29;20485;-77
2024/03/29 18:43:58;;;;;;;1.50;1.00;;;13.40;98.20;;;;;;4866452;29;20496;-79
2024/03/29 18:46:29;;;;;;;1.43;1.00;;;13.30;98.20;;;;;;4857973;29;20545;-79
2024/03/29 18:48:55;;;;;;;1.50;1.10;;;13.30;98.20;;;;;;4871654;29;20471;-80
2024/03/29 18:51:27;;;;;;;1.47;1.00;;;13.30;98.20;;;;;;4856085;29;20560;-78
2024/03/29 18:53:52;;;;;;;1.47;1.00;;;13.20;98.20;;;;;;4864564;29;20494;-81
2024/03/29 18:56:20;;;;;;;1.50;1.00;;;13.20;98.20;;;;;;4850188;29;20478;-80
2024/03/29 18:59:08;;;;;;;1.47;1.00;;;13.20;98.20;;;;;;4866180;29;20226;-81
2024/03/29 19:01:39;;;;;;;1.50;1.00;;;13.10;98.20;;;;;;4850665;29;21051;-81
2024/03/29 19:04:32;;;;;;;1.50;1.00;;;13.10;98.20;;;;;;4865576;29;20479;-81
2024/03/29 19:06:58;;;;;;;1.47;1.00;;;13.10;98.20;;;;;;4854163;29;20498;-80
2024/03/29 19:09:25;;;;;;;1.50;1.10;;;13.00;98.20;;;;;;4870901;29;20467;-79
2024/03/29 19:12:36;;;;;;;1.43;0.90;;;13.00;98.20;;;;;;4860723;29;20494;-82
2024/03/29 19:18:38;;;;;;;1.50;1.00;;;13.00;98.20;;;;;;4826641;29;20491;-82
2024/03/29 19:21:06;;;;;;;1.50;1.10;;;12.90;98.20;;;;;;4772049;29;21044;-80
2024/03/29 19:23:57;;;;;;;1.50;1.00;;;12.90;98.20;;;;;;4788655;29;20483;-82
2024/03/29 19:26:31;;;;;;;1.50;1.00;;;12.80;98.20;;;;;;4855108;29;20498;-80
2024/03/29 19:29:39;;;;;;;1.47;1.00;;;12.80;98.20;;;;;;4868640;29;20485;-81
2024/03/29 19:32:13;;;;;;;1.50;1.10;;;12.80;98.20;;;;;;4800914;29;20497;-80
2024/03/29 19:40:51;;;;;;;1.47;1.00;;;12.70;98.20;;;;;;4861664;29;20847;-81
2024/03/29 19:43:17;;;;;;;1.50;1.00;;;12.70;98.20;;;;;;4845736;29;20478;-78
2024/03/29 19:45:45;;;;;;;1.50;1.00;;;12.60;98.20;;;;;;4861438;29;20483;-79
2024/03/29 19:48:15;;;;;;;1.43;1.00;;;12.60;98.20;;;;;;4863248;29;20720;-79
2024/03/29 19:50:42;;;;;;;1.47;1.00;;;12.60;98.20;;;;;;4863436;29;21913;-79
2024/03/29 19:53:14;;;;;;;1.47;1.00;;;12.60;98.20;;;;;;4863061;29;20587;-79
2024/03/29 19:55:40;;;;;;;1.47;1.00;;;12.60;98.20;;;;;;4855005;29;20576;-80